Time,TemperatureF,DewpointF,PressureIn,WindDirection,WindDirectionDegrees,WindSpeedMPH,WindSpeedGustMPH,Humidity,HourlyPrecipIn,Conditions,Clouds,dailyrainin,SoftwareType,DateUTC
2014-01-22 00:00:00,41.3,22.1,30.20,WSW,244,2.0,2.0,46,0.00,,SKC,0.00,VWS V15.00,2014-01-22 06:00:00,
2014-01-22 00:30:00,41.3,22.1,30.19,WSW,248,0.0,3.0,46,0.00,,SKC,0.00,VWS V15.00,2014-01-22 06:30:00,
2014-01-22 01:00:00,42.1,21.2,30.18,WSW,237,0.0,4.0,43,0.00,,SKC,0.00,VWS V15.00,2014-01-22 07:00:00,
2014-01-22 01:30:00,41.7,20.9,30.17,SW,235,1.0,3.0,43,0.00,,SKC,0.00,VWS V15.00,2014-01-22 07:30:00,
2014-01-22 02:00:00,41.3,20.5,30.16,SSW,209,2.0,4.0,43,0.00,,SKC,0.00,VWS V15.00,2014-01-22 08:00:00,
2014-01-22 02:30:00,39.9,20.3,30.15,SW,221,1.0,4.0,45,0.00,,SKC,0.00,VWS V15.00,2014-01-22 08:30:00,
2014-01-22 03:00:00,39.2,20.7,30.15,SSW,209,1.0,4.0,47,0.00,,SKC,0.00,VWS V15.00,2014-01-22 09:00:00,
2014-01-22 03:30:00,39.1,20.6,30.14,SW,217,2.0,4.0,47,0.00,,SKC,0.00,VWS V15.00,2014-01-22 09:30:00,
2014-01-22 04:00:00,39.8,20.7,30.13,SW,227,3.0,6.0,46,0.00,,SKC,0.00,VWS V15.00,2014-01-22 10:00:00,
2014-01-22 04:30:00,39.6,20.0,30.12,SSW,203,1.0,6.0,45,0.00,,SKC,0.00,VWS V15.00,2014-01-22 10:30:00,
2014-01-22 05:00:00,39.6,19.5,30.12,SSW,202,3.0,5.0,44,0.00,,SKC,0.00,VWS V15.00,2014-01-22 11:00:00,
2014-01-22 05:30:00,39.6,19.5,30.12,SSW,210,2.0,5.0,44,0.00,,SKC,0.00,VWS V15.00,2014-01-22 11:30:00,
2014-01-22 06:00:00,40.0,19.3,30.12,SSW,211,2.0,4.0,43,0.00,,SKC,0.00,VWS V15.00,2014-01-22 12:00:00,
2014-01-22 06:30:00,40.9,19.6,30.12,SW,225,3.0,6.0,42,0.00,,SKC,0.00,VWS V15.00,2014-01-22 12:30:00,
2014-01-22 07:00:00,41.3,19.4,30.12,SW,225,3.0,7.0,41,0.00,,SKC,0.00,VWS V15.00,2014-01-22 13:00:00,
2014-01-22 07:30:00,41.1,19.2,30.12,SW,225,4.0,8.0,41,0.00,,SKC,0.00,VWS V15.00,2014-01-22 13:30:00,
2014-01-22 08:00:00,42.2,19.6,30.13,SW,225,2.0,6.0,40,0.00,,SKC,0.00,VWS V15.00,2014-01-22 14:00:00,
2014-01-22 08:30:00,45.3,21.2,30.13,SW,225,2.0,5.0,38,0.00,,SKC,0.00,VWS V15.00,2014-01-22 14:30:00,
2014-01-22 09:00:00,48.8,22.4,30.13,SW,225,3.0,7.0,35,0.00,,SKC,0.00,VWS V15.00,2014-01-22 15:00:00,
2014-01-22 09:30:00,50.6,23.3,30.14,SW,225,5.0,10.0,34,0.00,,SKC,0.00,VWS V15.00,2014-01-22 15:30:00,
2014-01-22 10:00:00,52.9,21.5,30.14,SW,225,6.0,13.0,29,0.00,,SKC,0.00,VWS V15.00,2014-01-22 16:00:00,
2014-01-22 10:30:00,55.9,22.4,30.13,SW,225,6.0,11.0,27,0.00,,SKC,0.00,VWS V15.00,2014-01-22 16:30:00,
2014-01-22 11:00:00,58.2,22.6,30.12,SW,225,6.0,12.0,25,0.00,,SKC,0.00,VWS V15.00,2014-01-22 17:00:00,
2014-01-22 11:30:00,59.5,22.7,30.12,SW,225,7.0,13.0,24,0.00,,SKC,0.00,VWS V15.00,2014-01-22 17:30:00,
2014-01-22 12:00:00,62.9,25.6,30.10,SW,225,7.0,14.0,24,0.00,,SKC,0.00,VWS V15.00,2014-01-22 18:00:00,
2014-01-22 12:30:00,65.8,24.8,30.06,SW,225,6.0,13.0,21,0.00,,SKC,0.00,VWS V15.00,2014-01-22 18:30:00,
2014-01-22 13:00:00,68.5,28.2,30.03,SSW,202,5.0,10.0,22,0.00,,SKC,0.00,VWS V15.00,2014-01-22 19:00:00,
2014-01-22 13:30:00,70.3,24.8,30.01,South,180,6.0,13.0,18,0.00,,SKC,0.00,VWS V15.00,2014-01-22 19:30:00,
2014-01-22 14:00:00,67.8,26.5,29.98,SE,135,4.0,8.0,21,0.00,,SKC,0.00,VWS V15.00,2014-01-22 20:00:00,
2014-01-22 14:30:00,67.2,27.1,29.98,SE,141,3.0,8.0,22,0.00,,---,0.00,VWS V15.00,2014-01-22 20:30:00,
2014-01-22 14:42:00,66.9,27.9,29.98,ESE,108,5.0,8.0,23,0.00,,---,0.00,VWS V15.00,2014-01-22 20:42:00,
2014-01-22 14:47:00,66.7,26.7,29.98,SE,143,3.0,8.0,22,0.00,,---,0.00,VWS V15.00,2014-01-22 20:47:00,
2014-01-22 15:00:00,67.8,26.5,29.98,SE,135,4.0,8.0,21,0.00,,SKC,0.00,VWS V15.00,2014-01-22 21:00:00,
2014-01-22 15:30:00,69.6,25.5,29.97,SE,135,5.0,12.0,19,0.00,,SKC,0.00,VWS V15.00,2014-01-22 21:30:00,
2014-01-22 16:00:00,69.8,23.1,29.97,SSE,158,6.0,12.0,17,0.00,,SKC,0.00,VWS V15.00,2014-01-22 22:00:00,
2014-01-22 16:30:00,67.1,23.5,29.97,SSE,158,6.0,11.0,19,0.00,,SKC,0.00,VWS V15.00,2014-01-22 22:30:00,
2014-01-22 17:00:00,68.7,20.7,29.97,SSE,158,5.0,9.0,16,0.00,,SKC,0.00,VWS V15.00,2014-01-22 23:00:00,
2014-01-22 17:30:00,65.9,17.0,29.97,SSE,158,5.0,11.0,15,0.00,,SKC,0.00,VWS V15.00,2014-01-22 23:30:00,
2014-01-22 18:00:00,63.2,16.3,29.97,SSE,158,4.0,11.0,16,0.00,,SKC,0.00,VWS V15.00,2014-01-23 00:00:00,
2014-01-22 18:30:00,60.3,17.9,29.97,SSE,158,3.0,9.0,19,0.00,,SKC,0.00,VWS V15.00,2014-01-23 00:30:00,
2014-01-22 19:00:00,57.8,18.1,29.98,SSE,158,2.0,4.0,21,0.00,,SKC,0.00,VWS V15.00,2014-01-23 01:00:00,
2014-01-22 19:30:00,56.0,17.7,29.99,SE,135,2.0,5.0,22,0.00,,SKC,0.00,VWS V15.00,2014-01-23 01:30:00,
2014-01-22 20:00:00,55.4,19.2,30.00,SE,135,2.0,4.0,24,0.00,,SKC,0.00,VWS V15.00,2014-01-23 02:00:00,
2014-01-22 20:30:00,54.8,20.6,30.00,SE,135,3.0,6.0,26,0.00,,SKC,0.00,VWS V15.00,2014-01-23 02:30:00,
2014-01-22 21:00:00,54.3,21.9,30.01,SE,135,3.0,5.0,28,0.00,,SKC,0.00,VWS V15.00,2014-01-23 03:00:00,
2014-01-22 21:30:00,54.5,22.9,30.01,SSE,158,2.0,5.0,29,0.00,,SKC,0.00,VWS V15.00,2014-01-23 03:30:00,
2014-01-22 22:00:00,54.2,22.6,30.02,SSE,158,2.0,5.0,29,0.00,,SKC,0.00,VWS V15.00,2014-01-23 04:00:00,
2014-01-22 22:30:00,53.0,23.2,30.02,SSE,158,1.0,4.0,31,0.00,,SKC,0.00,VWS V15.00,2014-01-23 04:30:00,
2014-01-22 23:00:00,53.2,24.1,30.03,ESE,112,2.0,5.0,32,0.00,,SKC,0.00,VWS V15.00,2014-01-23 05:00:00,
2014-01-22 23:30:00,53.4,24.3,30.03,ESE,112,3.0,7.0,32,0.00,,SKC,0.00,VWS V15.00,2014-01-23 05:30:00,